createdAt,value
2016-02-05T00:00:39.012Z,54.19
2016-02-05T00:01:38.967Z,54.13
2016-02-05T00:02:38.939Z,54.22
2016-02-05T00:03:38.926Z,54.13
2016-02-05T00:04:38.898Z,54.6
2016-02-05T00:05:38.869Z,53.93
2016-02-05T00:06:38.841Z,54.41
2016-02-05T00:07:38.813Z,54.5
2016-02-05T00:08:38.799Z,54.57
2016-02-05T00:09:38.786Z,54.89
2016-02-05T00:10:38.743Z,54.57
2016-02-05T00:11:38.730Z,54.77
2016-02-05T00:12:38.717Z,53.72
2016-02-05T00:13:38.673Z,53.74
2016-02-05T00:14:38.660Z,54.13
2016-02-05T00:15:38.636Z,54.22
2016-02-05T00:16:38.624Z,54.41
2016-02-05T00:17:38.628Z,54.13
2016-02-05T00:18:38.567Z,54.79
2016-02-05T00:19:38.554Z,54.79
2016-02-05T00:20:38.526Z,54.03
2016-02-05T00:21:38.497Z,54.32
2016-02-05T00:22:38.470Z,54.7
2016-02-05T00:23:38.472Z,54.03
2016-02-05T00:24:38.443Z,54.22
2016-02-05T00:25:38.404Z,54.5
2016-02-05T00:26:38.392Z,54.48
2016-02-05T00:27:38.363Z,53.93
2016-02-05T00:28:38.350Z,54.13
2016-02-05T00:29:38.556Z,54.41
2016-02-05T00:30:38.159Z,54.41
2016-02-05T00:31:38.270Z,54.13
2016-02-05T00:32:38.248Z,54.13
2016-02-05T00:33:38.219Z,54.22
2016-02-05T00:34:38.190Z,54.22
2016-02-05T00:35:38.187Z,54.32
2016-02-05T00:36:38.158Z,54.7
2016-02-05T00:37:38.130Z,54.48
2016-02-05T00:38:38.102Z,53.93
2016-02-05T00:39:38.089Z,53.74
2016-02-05T00:40:38.060Z,54.13
2016-02-05T00:41:38.047Z,54.41
2016-02-05T00:42:38.003Z,54.41
2016-02-05T00:43:38.012Z,54.32
2016-02-05T00:44:37.967Z,54.5
2016-02-05T00:45:37.939Z,54.89
2016-02-05T00:46:37.911Z,54.41
2016-02-05T00:47:37.914Z,54.79
2016-02-05T00:48:37.870Z,54.79
2016-02-05T00:49:37.856Z,54.38
2016-02-05T00:50:37.828Z,54.7
2016-02-05T00:51:37.815Z,54.7
2016-02-05T00:52:37.803Z,54.79
2016-02-05T00:53:37.773Z,54.6
2016-02-05T00:54:37.730Z,54.77
2016-02-05T00:55:37.720Z,54.79
2016-02-05T00:56:37.692Z,54.79
2016-02-05T00:57:37.666Z,54.1
2016-02-05T00:58:37.637Z,54.03
2016-02-05T00:59:37.624Z,54.89
2016-02-05T01:00:37.612Z,54.5
2016-02-05T01:01:37.584Z,54.79
2016-02-05T01:02:37.554Z,54.13
2016-02-05T01:03:37.526Z,54.7
2016-02-05T01:04:37.513Z,54.77
2016-02-05T01:05:37.485Z,54.7
2016-02-05T01:06:37.472Z,54.7
2016-02-05T01:07:37.444Z,54.79
2016-02-05T01:08:37.432Z,54.5
2016-02-05T01:09:37.387Z,54.7
2016-02-05T01:10:37.202Z,54.7
2016-02-05T01:11:37.360Z,54.13
2016-02-05T01:12:37.319Z,54.6
2016-02-05T01:13:37.305Z,54.32
2016-02-05T01:14:37.277Z,54.03
2016-02-05T01:15:37.294Z,54.13
2016-02-05T01:16:37.219Z,54.03
2016-02-05T01:17:37.207Z,54.13
2016-02-05T01:18:37.182Z,54.41
2016-02-05T01:19:37.153Z,54.03
2016-02-05T01:20:37.186Z,54.5
2016-02-05T01:21:37.112Z,54.6
2016-02-05T01:22:37.098Z,54.41
2016-02-05T01:23:37.070Z,54.32
2016-02-05T01:24:37.072Z,54.5
2016-02-05T01:25:37.014Z,54.7
2016-02-05T01:26:37.125Z,55.15
2016-02-05T01:27:36.977Z,54.7
2016-02-05T01:28:36.947Z,54.7
2016-02-05T01:29:36.919Z,54.89
2016-02-05T01:30:36.922Z,54.79
2016-02-05T01:31:36.877Z,54.7
2016-02-05T01:32:36.880Z,54.79
2016-02-05T01:33:36.836Z,54.7
2016-02-05T01:34:36.808Z,54.7
2016-02-05T01:35:36.830Z,54.7
2016-02-05T01:36:36.770Z,54.03
2016-02-05T01:37:36.742Z,54.79
2016-02-05T01:38:36.714Z,54.32
2016-02-05T01:39:36.700Z,54.7
2016-02-05T01:40:36.672Z,54.77
2016-02-05T01:41:36.705Z,54.7
2016-02-05T01:42:36.630Z,54.77
2016-02-05T01:43:36.602Z,54
2016-02-05T01:44:36.588Z,54.6
2016-02-05T01:45:36.576Z,54.6
2016-02-05T01:46:36.531Z,55.18
2016-02-05T01:47:36.520Z,55.18
2016-02-05T01:48:36.491Z,54.5
2016-02-05T01:49:36.463Z,54.32
2016-02-05T01:50:36.449Z,53.74
2016-02-05T01:51:36.436Z,54.1
2016-02-05T01:52:36.396Z,54.03
2016-02-05T01:53:36.383Z,54.13
2016-02-05T01:54:36.370Z,54.5
2016-02-05T01:55:36.345Z,53.74
2016-02-05T01:56:36.301Z,53.74
2016-02-05T01:57:36.288Z,53.74
2016-02-05T01:58:36.267Z,53.84
2016-02-05T01:59:36.239Z,54.03
2016-02-05T02:00:36.210Z,53.74
2016-02-05T02:01:36.197Z,53.84
2016-02-05T02:02:36.168Z,54.32
2016-02-05T02:03:36.156Z,54.22
2016-02-05T02:04:36.132Z,54.5
2016-02-05T02:05:36.088Z,54.48
2016-02-05T02:06:36.090Z,53.74
2016-02-05T02:07:36.062Z,54.32
2016-02-05T02:08:36.018Z,54.13
2016-02-05T02:09:36.021Z,54.03
2016-02-05T02:10:36.009Z,54.03
2016-02-05T02:11:35.964Z,53.84
2016-02-05T02:12:35.952Z,54.7
2016-02-05T02:13:35.923Z,55.08
2016-02-05T02:14:35.895Z,54.7
2016-02-05T02:15:35.866Z,54.13
2016-02-05T02:16:35.853Z,54.79
2016-02-05T02:17:35.825Z,53.81
2016-02-05T02:18:36.093Z,54.03
2016-02-05T02:19:35.767Z,53.74
2016-02-05T02:20:35.788Z,54.32
2016-02-05T02:21:35.728Z,54.7
2016-02-05T02:22:35.700Z,54.79
2016-02-05T02:23:35.734Z,54.89
2016-02-05T02:24:35.658Z,54.86
2016-02-05T02:25:35.630Z,55.15
2016-02-05T02:26:35.617Z,54.79
2016-02-05T02:27:35.589Z,54.67
2016-02-05T02:28:35.593Z,54.67
2016-02-05T02:29:35.549Z,54.67
2016-02-05T02:30:35.541Z,54.96
2016-02-05T02:31:35.513Z,54.79
2016-02-05T02:32:35.468Z,54.32
2016-02-05T02:33:35.472Z,54.6
2016-02-05T02:34:35.443Z,54.41
2016-02-05T02:35:35.415Z,54.79
2016-02-05T02:36:35.370Z,54.99
2016-02-05T02:37:35.357Z,54.67
2016-02-05T02:38:35.329Z,55.08
2016-02-05T02:39:35.363Z,54.7
2016-02-05T02:40:35.286Z,54.7
2016-02-05T02:41:35.272Z,54.48
2016-02-05T02:42:35.243Z,54.6
2016-02-05T02:43:35.216Z,54.67
2016-02-05T02:44:35.192Z,55.18
2016-02-05T02:45:35.179Z,54.67
2016-02-05T02:46:35.150Z,54.86
2016-02-05T02:47:35.121Z,55.18
2016-02-05T02:48:35.124Z,54.7
2016-02-05T02:49:35.079Z,54.77
2016-02-05T02:50:35.067Z,54.96
2016-02-05T02:51:35.085Z,54.86
2016-02-05T02:52:35.010Z,54.86
2016-02-05T02:53:34.984Z,54.48
2016-02-05T02:54:34.987Z,54.6
2016-02-05T02:55:34.942Z,54.13
2016-02-05T02:56:34.945Z,54.38
2016-02-05T02:57:34.901Z,54.86
2016-02-05T02:58:34.874Z,54.13
2016-02-05T02:59:34.861Z,54.41
2016-02-05T03:00:34.836Z,54.7
2016-02-05T03:01:34.792Z,54.41
2016-02-05T03:02:34.779Z,54.7
2016-02-05T03:03:34.813Z,55.08
2016-02-05T03:04:34.738Z,55.15
2016-02-05T03:05:34.710Z,55.05
2016-02-05T03:06:34.681Z,54.77
2016-02-05T03:07:34.653Z,54.89
2016-02-05T03:08:34.639Z,54.19
2016-02-05T03:09:34.628Z,54.41
2016-02-05T03:10:34.598Z,53.93
2016-02-05T03:11:34.601Z,54.22
2016-02-05T03:12:34.541Z,54.7
2016-02-05T03:13:34.514Z,54.22
2016-02-05T03:14:34.505Z,54.79
2016-02-05T03:15:34.636Z,54.67
2016-02-05T03:16:34.450Z,54.79
2016-02-05T03:17:34.438Z,53.91
2016-02-05T03:18:34.425Z,54.7
2016-02-05T03:19:34.380Z,54.48
2016-02-05T03:20:34.371Z,54.7
2016-02-05T03:21:34.343Z,55.08
2016-02-05T03:22:34.315Z,54.77
2016-02-05T03:23:34.286Z,54.67
2016-02-05T03:24:34.273Z,54.89
2016-02-05T03:25:34.245Z,55.18
2016-02-05T03:26:34.232Z,54.1
2016-02-05T03:27:34.204Z,53.81
2016-02-05T03:28:34.191Z,54.03
2016-02-05T03:29:34.146Z,53.17
2016-02-05T03:30:34.149Z,53.84
2016-02-05T03:31:34.102Z,54.13
2016-02-05T03:32:34.089Z,54.13
2016-02-05T03:33:34.075Z,54
2016-02-05T03:34:34.046Z,53.84
2016-02-05T03:35:34.018Z,53.93
2016-02-05T03:36:33.990Z,54.22
2016-02-05T03:37:33.977Z,54.41
2016-02-05T03:38:33.934Z,54.77
2016-02-05T03:39:33.937Z,55.15
2016-02-05T03:40:33.892Z,54.03
2016-02-05T03:41:34.084Z,53.93
2016-02-05T03:42:33.867Z,54.41
2016-02-05T03:43:33.839Z,53.84
2016-02-05T03:44:33.795Z,54.22
2016-02-05T03:45:33.783Z,54.22
2016-02-05T03:46:33.771Z,54.13
2016-02-05T03:47:33.741Z,54.5
2016-02-05T03:48:33.730Z,54.86
2016-02-05T03:49:33.685Z,54
2016-02-05T03:50:33.672Z,53.84
2016-02-05T03:51:33.643Z,54.22
2016-02-05T03:52:33.616Z,54.03
2016-02-05T03:53:33.602Z,54.38
2016-02-05T03:54:33.573Z,53.65
2016-02-05T03:55:33.546Z,54.13
2016-02-05T03:56:33.531Z,54.19
2016-02-05T03:57:33.519Z,54.5
2016-02-05T03:58:33.478Z,54.29
2016-02-05T03:59:33.465Z,54.77
2016-02-05T04:00:33.427Z,54.79
2016-02-05T04:01:33.414Z,54.96
2016-02-05T04:02:33.386Z,54.38
2016-02-05T04:03:33.358Z,54
2016-02-05T04:04:33.328Z,54.67
2016-02-05T04:05:33.320Z,54.41
2016-02-05T04:06:33.290Z,54
2016-02-05T04:07:33.293Z,54.86
2016-02-05T04:08:33.249Z,54.7
2016-02-05T04:09:33.236Z,54.29
2016-02-05T04:10:33.208Z,54.32
2016-02-05T04:11:33.178Z,54.32
2016-02-05T04:12:33.197Z,54.6
2016-02-05T04:13:33.138Z,54.48
2016-02-05T04:14:33.108Z,54.79
2016-02-05T04:15:33.314Z,54.7
2016-02-05T04:16:33.067Z,54.67
2016-02-05T04:17:33.038Z,54.48
2016-02-05T04:18:33.027Z,54.79
2016-02-05T04:19:32.982Z,54.77
2016-02-05T04:20:32.970Z,54.79
2016-02-05T04:21:32.956Z,54.89
2016-02-05T04:22:32.928Z,54.89
2016-02-05T04:23:32.905Z,55.08
2016-02-05T04:24:32.878Z,54.6
2016-02-05T04:25:32.880Z,54.96
2016-02-05T04:26:32.835Z,55.15
2016-02-05T04:27:32.806Z,54.79
2016-02-05T04:28:32.777Z,54.29
2016-02-05T04:29:32.764Z,54.79
2016-02-05T04:30:32.734Z,54.96
2016-02-05T04:31:32.722Z,54.77
2016-02-05T04:32:32.693Z,54.86
2016-02-05T04:33:32.658Z,54.96
2016-02-05T04:34:32.638Z,54.38
2016-02-05T04:35:32.600Z,54.89
2016-02-05T04:36:32.564Z,54.77
2016-02-05T04:37:32.528Z,54.79
2016-02-05T04:38:32.512Z,54.57
2016-02-05T04:39:32.480Z,54.57
2016-02-05T04:40:32.496Z,54.99
2016-02-05T04:41:32.418Z,54.77
2016-02-05T04:42:32.403Z,54.89
2016-02-05T04:43:32.389Z,55.15
2016-02-05T04:44:32.375Z,54.7
2016-02-05T04:45:32.344Z,54.86
2016-02-05T04:46:32.299Z,54.86
2016-02-05T04:47:32.269Z,54.77
2016-02-05T04:48:32.256Z,54.67
2016-02-05T04:49:32.227Z,54.96
2016-02-05T04:50:32.214Z,55.15
2016-02-05T04:51:32.202Z,54.77
2016-02-05T04:52:32.188Z,54.67
2016-02-05T04:53:32.144Z,54.89
2016-02-05T04:54:32.163Z,54.67
2016-02-05T04:55:32.103Z,54.67
2016-02-05T04:56:32.078Z,54.96
2016-02-05T04:57:32.050Z,54.38
2016-02-05T04:58:32.022Z,54.6
2016-02-05T04:59:32.009Z,54.6
2016-02-05T05:00:31.983Z,54.7
2016-02-05T05:01:31.954Z,54.7
2016-02-05T05:02:31.925Z,54.67
2016-02-05T05:03:31.915Z,54.89
2016-02-05T05:04:31.887Z,54.79
2016-02-05T05:05:31.858Z,54.86
2016-02-05T05:06:31.860Z,55.15
2016-02-05T05:07:31.816Z,54.13
2016-02-05T05:08:31.789Z,54.5
2016-02-05T05:09:31.869Z,54.48
2016-02-05T05:10:31.762Z,54.7
2016-02-05T05:11:31.733Z,54
2016-02-05T05:12:31.705Z,53.84
2016-02-05T05:13:31.708Z,54.22
2016-02-05T05:14:31.648Z,53.74
2016-02-05T05:15:31.635Z,54.22
2016-02-05T05:16:31.607Z,54.41
2016-02-05T05:17:31.579Z,54.89
2016-02-05T05:18:31.566Z,54.89
2016-02-05T05:19:31.552Z,54.77
2016-02-05T05:20:31.508Z,54.03
2016-02-05T05:21:31.496Z,54.03
2016-02-05T05:22:31.483Z,54.48
2016-02-05T05:23:31.440Z,54.6
2016-02-05T05:24:31.427Z,54.77
2016-02-05T05:25:31.414Z,54.67
2016-02-05T05:26:31.386Z,54.86
2016-02-05T05:27:31.357Z,54.67
2016-02-05T05:28:31.332Z,55.05
2016-02-05T05:29:31.304Z,54.77
2016-02-05T05:30:31.293Z,54.77
2016-02-05T05:31:31.265Z,54
2016-02-05T05:32:31.237Z,54.32
2016-02-05T05:33:31.208Z,55.08
2016-02-05T05:34:31.195Z,54.77
2016-02-05T05:35:31.167Z,54.57
2016-02-05T05:36:31.142Z,54.13
2016-02-05T05:37:31.129Z,54.7
2016-02-05T05:38:31.100Z,54.38
2016-02-05T05:39:31.103Z,54.6
2016-02-05T05:40:31.060Z,54.79
2016-02-05T05:41:31.030Z,54.6
2016-02-05T05:42:31.017Z,55.15
2016-02-05T05:43:30.990Z,54.86
2016-02-05T05:44:30.977Z,55.05
2016-02-05T05:45:30.995Z,54.77
2016-02-05T05:46:30.935Z,54.86
2016-02-05T05:47:30.891Z,54.67
2016-02-05T05:48:30.878Z,54.77
2016-02-05T05:49:30.881Z,54.86
2016-02-05T05:50:30.822Z,54.67
2016-02-05T05:51:30.809Z,54.03
2016-02-05T05:52:30.780Z,54.48
2016-02-05T05:53:30.753Z,54.5
2016-02-05T05:54:30.739Z,54.6
2016-02-05T05:55:30.711Z,54.99
2016-02-05T05:56:30.682Z,54.48
2016-02-05T05:57:30.668Z,54.79
2016-02-05T05:58:30.641Z,54.86
2016-02-05T05:59:30.612Z,54.77
2016-02-05T06:00:30.600Z,54.7
2016-02-05T06:01:30.571Z,54.86
2016-02-05T06:02:30.543Z,54.7
2016-02-05T06:03:30.530Z,54.67
2016-02-05T06:04:30.501Z,54.96
2016-02-05T06:05:30.473Z,54.77
2016-02-05T06:06:30.647Z,54.77
2016-02-05T06:07:30.431Z,54.1
2016-02-05T06:08:30.403Z,54.5
2016-02-05T06:09:30.391Z,54.79
2016-02-05T06:10:30.347Z,54.67
2016-02-05T06:11:30.350Z,54.57
2016-02-05T06:12:30.305Z,54.29
2016-02-05T06:13:30.292Z,54.7
2016-02-05T06:14:30.264Z,54.5
2016-02-05T06:15:30.236Z,54.67
2016-02-05T06:16:30.223Z,54.13
2016-02-05T06:17:30.209Z,54.1
2016-02-05T06:18:30.166Z,55.18
2016-02-05T06:19:30.155Z,54.79
2016-02-05T06:20:30.141Z,54.67
2016-02-05T06:21:30.101Z,54.79
2016-02-05T06:22:30.088Z,54.67
2016-02-05T06:23:30.059Z,54.41
2016-02-05T06:24:30.031Z,54.22
2016-02-05T06:25:30.017Z,53.93
2016-02-05T06:26:29.989Z,53.84
2016-02-05T06:27:29.976Z,54.41
2016-02-05T06:28:29.948Z,55.05
2016-02-05T06:29:29.759Z,54.7
2016-02-05T06:30:29.903Z,54.7
2016-02-05T06:31:29.873Z,54.77
2016-02-05T06:32:29.845Z,54.77
2016-02-05T06:33:29.832Z,54.99
2016-02-05T06:34:29.804Z,54.86
2016-02-05T06:35:29.775Z,54.99
2016-02-05T06:36:29.762Z,54.99
2016-02-05T06:37:29.734Z,54.32
2016-02-05T06:38:29.705Z,54.77
2016-02-05T06:39:29.692Z,54.96
2016-02-05T06:40:29.680Z,54.99
2016-02-05T06:41:29.652Z,54.86
2016-02-05T06:42:29.623Z,54.96
2016-02-05T06:43:29.595Z,54.67
2016-02-05T06:44:29.581Z,54.77
2016-02-05T06:45:29.553Z,54.79
2016-02-05T06:46:29.525Z,54.99
2016-02-05T06:47:29.512Z,54.99
2016-02-05T06:48:29.498Z,54.38
2016-02-05T06:49:29.469Z,54.19
2016-02-05T06:50:29.425Z,54.7
2016-02-05T06:51:29.414Z,54.6
2016-02-05T06:52:29.384Z,54.03
2016-02-05T06:53:29.371Z,54.5
2016-02-05T06:54:29.344Z,53.93
2016-02-05T06:55:29.330Z,54.6
2016-02-05T06:56:29.287Z,55.18
2016-02-05T06:57:29.273Z,54.19
2016-02-05T06:58:29.245Z,54.7
2016-02-05T06:59:29.213Z,54.5
2016-02-05T07:00:29.201Z,54.5
2016-02-05T07:01:29.172Z,53.93
2016-02-05T07:02:29.159Z,54.03
2016-02-05T07:03:29.271Z,54.5
2016-02-05T07:04:29.104Z,54.79
2016-02-05T07:05:29.168Z,54.6
2016-02-05T07:06:29.078Z,54.77
2016-02-05T07:07:29.033Z,54.79
2016-02-05T07:08:29.020Z,54.89
2016-02-05T07:09:28.993Z,54.89
2016-02-05T07:10:28.979Z,54.6
2016-02-05T07:11:28.951Z,55.18
2016-02-05T07:12:28.922Z,54.86
2016-02-05T07:13:28.910Z,54.77
2016-02-05T07:14:28.882Z,54.79
2016-02-05T07:15:28.994Z,54.38
2016-02-05T07:16:28.856Z,54.6
2016-02-05T07:17:28.796Z,53.84
2016-02-05T07:18:28.784Z,54.79
2016-02-05T07:19:28.802Z,54.6
2016-02-05T07:20:28.742Z,54.79
2016-02-05T07:21:28.729Z,54.03
2016-02-05T07:22:28.692Z,54.22
2016-02-05T07:23:28.678Z,54.32
2016-02-05T07:24:28.650Z,54.41
2016-02-05T07:25:28.622Z,54.32
2016-02-05T07:26:28.609Z,54.22
2016-02-05T07:27:28.581Z,54.22
2016-02-05T07:28:28.568Z,54.13
2016-02-05T07:29:28.524Z,54.41
2016-02-05T07:30:28.513Z,53.84
2016-02-05T07:31:28.485Z,53.74
2016-02-05T07:32:28.472Z,53.93
2016-02-05T07:33:28.443Z,54.03
2016-02-05T07:34:28.416Z,54.03
2016-02-05T07:35:28.388Z,53.74
2016-02-05T07:36:28.360Z,53.84
2016-02-05T07:37:28.362Z,54.03
2016-02-05T07:38:28.318Z,54.41
2016-02-05T07:39:28.304Z,53.65
2016-02-05T07:40:28.277Z,53.65
2016-02-05T07:41:28.263Z,54.22
2016-02-05T07:42:28.266Z,54.22
2016-02-05T07:43:28.222Z,54.22
2016-02-05T07:44:28.192Z,54.13
2016-02-05T07:45:28.165Z,54.13
2016-02-05T07:46:28.137Z,53.93
2016-02-05T07:47:28.139Z,54.13
2016-02-05T07:48:28.094Z,54.03
2016-02-05T07:49:28.066Z,54.22
2016-02-05T07:50:28.053Z,54.89
2016-02-05T07:51:28.024Z,54.13
2016-02-05T07:52:27.996Z,54.32
2016-02-05T07:53:27.983Z,53.84
2016-02-05T07:54:28.346Z,53.93
2016-02-05T07:55:27.928Z,54.22
2016-02-05T07:56:27.915Z,54.7
2016-02-05T07:57:27.887Z,54.6
2016-02-05T07:58:27.857Z,54.89
2016-02-05T07:59:27.845Z,54.6
2016-02-05T08:00:27.832Z,54.7
2016-02-05T08:01:27.793Z,54.22
2016-02-05T08:02:27.768Z,54.22
2016-02-05T08:03:27.755Z,54.22
2016-02-05T08:04:27.727Z,53.84
2016-02-05T08:05:27.699Z,54.5
2016-02-05T08:06:27.904Z,54.41
2016-02-05T08:07:27.657Z,53.84
2016-02-05T08:08:27.645Z,54.13
2016-02-05T08:09:27.631Z,54.22
2016-02-05T08:10:27.588Z,54.99
2016-02-05T08:11:27.558Z,54.41
2016-02-05T08:12:27.546Z,54.41
2016-02-05T08:13:27.533Z,54.79
2016-02-05T08:14:27.488Z,54.79
2016-02-05T08:15:27.460Z,54.7
2016-02-05T08:16:27.463Z,54.6
2016-02-05T08:17:27.418Z,54.5
2016-02-05T08:18:27.405Z,54.6
2016-02-05T08:19:27.377Z,54.22
2016-02-05T08:20:27.366Z,54.22
2016-02-05T08:21:27.338Z,53.55
2016-02-05T08:22:27.311Z,54.13
2016-02-05T08:23:27.282Z,54.5
2016-02-05T08:24:27.268Z,54.79
2016-02-05T08:25:27.240Z,53.93
2016-02-05T08:26:27.227Z,54.13
2016-02-05T08:27:27.201Z,53.74
2016-02-05T08:28:27.187Z,53.84
2016-02-05T08:29:27.143Z,53.93
2016-02-05T08:30:26.977Z,53.93
2016-02-05T08:31:27.104Z,53.84
2016-02-05T08:32:27.107Z,53.93
2016-02-05T08:33:27.063Z,53.93
2016-02-05T08:34:27.033Z,53.36
2016-02-05T08:35:27.021Z,54.22
2016-02-05T08:36:26.993Z,53.93
2016-02-05T08:37:26.963Z,54.03
2016-02-05T08:38:26.951Z,54.03
2016-02-05T08:39:26.922Z,54.89
2016-02-05T08:40:26.910Z,54.41
2016-02-05T08:41:26.882Z,54.6
2016-02-05T08:42:26.853Z,54.79
2016-02-05T08:43:26.855Z,54.41
2016-02-05T08:44:26.811Z,54.32
2016-02-05T08:45:26.783Z,54.79
2016-02-05T08:46:26.755Z,54.89
2016-02-05T08:47:26.743Z,54.79
2016-02-05T08:48:26.715Z,55.18
2016-02-05T08:49:26.702Z,54.79
2016-02-05T08:50:26.674Z,55.08
2016-02-05T08:51:26.645Z,54.99
2016-02-05T08:52:26.632Z,54.41
2016-02-05T08:53:26.605Z,54.6
2016-02-05T08:54:26.577Z,54.7
2016-02-05T08:55:26.548Z,54.13
2016-02-05T08:56:26.536Z,54.22
2016-02-05T08:57:26.522Z,54.22
2016-02-05T08:58:26.635Z,54.6
2016-02-05T08:59:26.465Z,55.18
2016-02-05T09:00:26.438Z,54.99
2016-02-05T09:01:26.428Z,54.32
2016-02-05T09:02:26.399Z,54.22
2016-02-05T09:03:26.387Z,53.55
2016-02-05T09:04:26.358Z,54.22
2016-02-05T09:05:26.348Z,54.03
2016-02-05T09:06:26.320Z,55.08
2016-02-05T09:07:26.276Z,53.55
2016-02-05T09:08:26.262Z,54.13
2016-02-05T09:09:26.234Z,54.41
2016-02-05T09:10:26.268Z,55.08
2016-02-05T09:11:26.208Z,54.79
2016-02-05T09:12:26.163Z,54.6
2016-02-05T09:13:26.153Z,54.13
2016-02-05T09:14:26.142Z,54.99
2016-02-05T09:15:26.099Z,54.41
2016-02-05T09:16:26.087Z,56.23
2016-02-05T09:17:26.060Z,54.7
2016-02-05T09:18:26.062Z,54.99
2016-02-05T09:19:26.018Z,55.18
2016-02-05T09:20:25.996Z,55.46
2016-02-05T09:21:25.999Z,54.32
2016-02-05T09:22:25.955Z,54.7
2016-02-05T09:23:25.926Z,55.18
2016-02-05T09:24:25.898Z,54.22
2016-02-05T09:25:25.874Z,54.7
2016-02-05T09:26:25.860Z,54.13
2016-02-05T09:27:25.847Z,54.79
2016-02-05T09:28:25.803Z,53.93
2016-02-05T09:29:25.790Z,53.84
2016-02-05T09:30:25.762Z,54.22
2016-02-05T09:31:25.748Z,54.13
2016-02-05T09:32:25.720Z,53.65
2016-02-05T09:33:25.707Z,54.03
2016-02-05T09:34:25.679Z,54.03
2016-02-05T09:35:25.650Z,53.74
2016-02-05T09:36:25.654Z,53.84
2016-02-05T09:37:25.609Z,53.36
2016-02-05T09:38:25.580Z,55.84
2016-02-05T09:39:25.567Z,55.46
2016-02-05T09:40:25.554Z,54.7
2016-02-05T09:41:25.526Z,54.03
2016-02-05T09:42:25.497Z,54.13
2016-02-05T09:43:25.484Z,54.99
2016-02-05T09:44:25.455Z,53.84
2016-02-05T09:45:25.427Z,53.74
2016-02-05T09:46:25.415Z,54.6
2016-02-05T09:47:25.387Z,54.13
2016-02-05T09:48:25.360Z,54.7
2016-02-05T09:49:25.349Z,54.22
2016-02-05T09:50:25.319Z,54.22
2016-02-05T09:51:25.290Z,53.74
2016-02-05T09:52:25.293Z,53.74
2016-02-05T09:53:25.250Z,54.22
2016-02-05T09:54:25.238Z,54.41
2016-02-05T09:55:25.209Z,54.22
2016-02-05T09:56:25.180Z,54.13
2016-02-05T09:57:25.168Z,54.32
2016-02-05T09:58:25.140Z,54.13
2016-02-05T09:59:25.112Z,54.89
2016-02-05T10:00:25.098Z,54.79
2016-02-05T10:01:25.305Z,54.89
2016-02-05T10:02:25.058Z,54.6
2016-02-05T10:03:25.014Z,54.99
2016-02-05T10:04:25.001Z,53.93
2016-02-05T10:05:24.973Z,54.7
2016-02-05T10:06:24.960Z,55.65
2016-02-05T10:07:24.947Z,54.89
2016-02-05T10:08:24.919Z,55.18
2016-02-05T10:09:24.890Z,54.22
2016-02-05T10:10:24.862Z,55.08
2016-02-05T10:11:24.865Z,54.89
2016-02-05T10:12:24.820Z,55.08
2016-02-05T10:13:24.792Z,54.79
2016-02-05T10:14:24.810Z,54.7
2016-02-05T10:15:24.750Z,54.41
2016-02-05T10:16:24.739Z,54.41
2016-02-05T10:17:24.710Z,55.65
2016-02-05T10:18:24.685Z,54.32
2016-02-05T10:19:24.657Z,54.79
2016-02-05T10:20:24.644Z,54.89
2016-02-05T10:21:24.615Z,54.79
2016-02-05T10:22:24.603Z,54.79
2016-02-05T10:23:24.574Z,55.08
2016-02-05T10:24:24.545Z,54.79
2016-02-05T10:25:24.736Z,55.08
2016-02-05T10:26:24.550Z,54.99
2016-02-05T10:27:24.507Z,55.18
2016-02-05T10:28:24.462Z,54.32
2016-02-05T10:29:24.450Z,54.32
2016-02-05T10:30:24.421Z,55.94
2016-02-05T10:31:24.392Z,56.99
2016-02-05T10:32:24.395Z,55.18
2016-02-05T10:33:24.354Z,54.79
2016-02-05T10:34:24.325Z,54.79
2016-02-05T10:35:24.313Z,54.13
2016-02-05T10:36:24.300Z,55.46
2016-02-05T10:37:24.287Z,54.79
2016-02-05T10:38:24.227Z,55.46
2016-02-05T10:39:24.216Z,55.46
2016-02-05T10:40:24.188Z,54.32
2016-02-05T10:41:24.174Z,54.79
2016-02-05T10:42:24.146Z,56.51
2016-02-05T10:43:24.118Z,55.75
2016-02-05T10:44:24.088Z,55.55
2016-02-05T10:45:24.076Z,55.75
2016-02-05T10:46:24.048Z,55.94
2016-02-05T10:47:24.034Z,55.94
2016-02-05T10:48:24.037Z,55.75
2016-02-05T10:49:23.993Z,56.23
2016-02-05T10:50:23.964Z,54.89
2016-02-05T10:51:23.967Z,54.6
2016-02-05T10:52:23.923Z,54.89
2016-02-05T10:53:23.909Z,54.89
2016-02-05T10:54:23.881Z,54.99
2016-02-05T10:55:23.853Z,54.13
2016-02-05T10:56:23.825Z,54.79
2016-02-05T10:57:23.811Z,54.7
2016-02-05T10:58:24.017Z,53.93
2016-02-05T10:59:23.771Z,55.18
2016-02-05T11:00:23.742Z,54.03
2016-02-05T11:01:23.745Z,54.6
2016-02-05T11:02:23.685Z,55.84
2016-02-05T11:03:23.674Z,54.89
2016-02-05T11:04:23.645Z,54.99
2016-02-05T11:05:23.633Z,55.27
2016-02-05T11:06:23.604Z,55.27
2016-02-05T11:07:23.575Z,55.08
2016-02-05T11:08:23.562Z,55.46
2016-02-05T11:09:23.533Z,54.41
2016-02-05T11:10:23.521Z,54.7
2016-02-05T11:11:23.493Z,54.32
2016-02-05T11:12:23.464Z,54.03
2016-02-05T11:13:23.436Z,55.08
2016-02-05T11:14:23.439Z,54.79
2016-02-05T11:15:23.410Z,55.08
2016-02-05T11:16:23.383Z,54.41
2016-02-05T11:17:23.354Z,54.99
2016-02-05T11:18:23.357Z,55.18
2016-02-05T11:19:23.315Z,54.7
2016-02-05T11:20:23.286Z,54.7
2016-02-05T11:21:23.273Z,54.89
2016-02-05T11:22:23.244Z,54.79
2016-02-05T11:23:23.232Z,55.27
2016-02-05T11:24:23.204Z,54.22
2016-02-05T11:25:23.176Z,54.79
2016-02-05T11:26:23.162Z,54.79
2016-02-05T11:27:23.134Z,54.7
2016-02-05T11:28:23.106Z,54.82
2016-02-05T11:29:23.092Z,53.93
2016-02-05T11:30:23.064Z,54.99
2016-02-05T11:31:23.036Z,54.99
2016-02-05T11:32:23.025Z,55.27
2016-02-05T11:33:22.996Z,54.89
2016-02-05T11:34:22.968Z,55.27
2016-02-05T11:35:22.954Z,55.96
2016-02-05T11:36:22.958Z,54.7
2016-02-05T11:37:22.901Z,54.22
2016-02-05T11:38:22.889Z,53.84
2016-02-05T11:39:22.862Z,55.27
2016-02-05T11:40:22.848Z,55.36
2016-02-05T11:41:22.820Z,55.08
2016-02-05T11:42:22.790Z,55.2
2016-02-05T11:43:22.778Z,54.03
2016-02-05T11:44:22.750Z,54.25
2016-02-05T11:45:22.721Z,54.72
2016-02-05T11:46:22.708Z,54.15
2016-02-05T11:47:22.679Z,53.96
2016-02-05T11:48:22.650Z,55.36
2016-02-05T11:49:22.638Z,54.89
2016-02-05T11:50:22.625Z,55.11
2016-02-05T11:51:22.597Z,55.58
2016-02-05T11:52:22.567Z,55.4
2016-02-05T11:53:22.539Z,54.79
2016-02-05T11:54:22.526Z,55.18
2016-02-05T11:55:22.779Z,55.36
2016-02-05T11:56:22.500Z,55.11
2016-02-05T11:57:22.456Z,55.01
2016-02-05T11:58:22.428Z,55.96
2016-02-05T11:59:22.447Z,56.92
2016-02-05T12:00:22.402Z,56.45
2016-02-05T12:01:22.374Z,56.51
2016-02-05T12:02:22.378Z,55.87
2016-02-05T12:03:22.318Z,54.7
2016-02-05T12:04:22.290Z,56.73
2016-02-05T12:05:22.278Z,55.18
2016-02-05T12:06:22.266Z,55.3
2016-02-05T12:07:22.237Z,55.11
2016-02-05T12:08:22.209Z,54.91
2016-02-05T12:09:22.195Z,57.02
2016-02-05T12:10:22.155Z,55.84
2016-02-05T12:11:22.157Z,55.2
2016-02-05T12:12:22.114Z,56.63
2016-02-05T12:13:22.117Z,55.87
2016-02-05T12:14:22.103Z,55.01
2016-02-05T12:15:22.059Z,55.49
2016-02-05T12:16:22.030Z,56.35
2016-02-05T12:17:22.019Z,54.15
2016-02-05T12:18:22.194Z,56.25
2016-02-05T12:19:21.963Z,57.11
2016-02-05T12:20:21.965Z,55.96
2016-02-05T12:21:21.921Z,55.96
2016-02-05T12:22:21.910Z,56.54
2016-02-05T12:23:21.865Z,56.25
2016-02-05T12:24:21.853Z,56.45
2016-02-05T12:25:21.840Z,55.87
2016-02-05T12:26:21.797Z,55.58
2016-02-05T12:27:21.799Z,55.58
2016-02-05T12:28:21.755Z,56.06
2016-02-05T12:29:21.742Z,55.96
2016-02-05T12:30:21.716Z,55.58
2016-02-05T12:31:21.703Z,55.77
2016-02-05T12:32:21.690Z,57.21
2016-02-05T12:33:21.649Z,56.25
2016-02-05T12:34:21.637Z,55.96
2016-02-05T12:35:21.608Z,56.06
2016-02-05T12:36:21.580Z,56.06
2016-02-05T12:37:21.566Z,55.68
2016-02-05T12:38:21.542Z,57.21
2016-02-05T12:39:21.528Z,59.12
2016-02-05T12:40:21.484Z,56.89
2016-02-05T12:41:21.472Z,56.45
2016-02-05T12:42:21.475Z,55.77
2016-02-05T12:43:21.431Z,57.21
2016-02-05T12:44:21.403Z,56.06
2016-02-05T12:45:21.389Z,55.87
2016-02-05T12:46:21.393Z,55.87
2016-02-05T12:47:21.583Z,56.73
2016-02-05T12:48:21.320Z,57.78
2016-02-05T12:49:21.322Z,58.16
2016-02-05T12:50:21.267Z,57.21
2016-02-05T12:51:21.254Z,56.82
2016-02-05T12:52:21.335Z,56.35
2016-02-05T12:53:21.196Z,56.06
2016-02-05T12:54:21.184Z,57.02
2016-02-05T12:55:21.174Z,55.96
2016-02-05T12:56:21.161Z,57.02
2016-02-05T12:57:21.117Z,56.92